createdAt,value
2022-09-04T00:00:00.084Z,21.88
2022-09-04T00:02:55.356Z,21.84
2022-09-04T00:05:35.298Z,21.82
2022-09-04T00:08:16.940Z,21.78
2022-09-04T00:10:49.535Z,21.76
2022-09-04T00:13:33.159Z,21.74
2022-09-04T00:16:22.131Z,21.70
2022-09-04T00:19:07.679Z,21.67
2022-09-04T00:21:39.940Z,21.65
2022-09-04T00:24:18.279Z,21.60
2022-09-04T00:26:58.647Z,21.58
2022-09-04T00:29:42.800Z,21.54
2022-09-04T00:32:18.789Z,21.52
2022-09-04T00:35:10.702Z,21.50
2022-09-04T00:37:41.203Z,21.48
2022-09-04T00:40:38.846Z,21.45
2022-09-04T00:43:22.252Z,21.42
2022-09-04T00:46:06.199Z,21.40
2022-09-04T00:48:41.982Z,21.37
2022-09-04T00:51:46.447Z,21.35
2022-09-04T00:54:28.983Z,21.30
2022-09-04T00:57:10.027Z,21.30
2022-09-04T00:59:45.646Z,21.28
2022-09-04T01:02:43.821Z,21.25
2022-09-04T01:05:33.064Z,21.21
2022-09-04T01:08:23.888Z,21.18
2022-09-04T01:10:51.656Z,21.17
2022-09-04T01:13:38.540Z,21.15
2022-09-04T01:16:36.071Z,21.11
2022-09-04T01:19:21.614Z,21.09
2022-09-04T01:22:03.540Z,21.07
2022-09-04T01:24:41.283Z,21.02
2022-09-04T01:27:09.381Z,21.00
2022-09-04T01:29:53.302Z,20.97
2022-09-04T01:32:31.815Z,20.92
2022-09-04T01:35:09.199Z,20.91
2022-09-04T01:37:43.781Z,20.86
2022-09-04T01:40:21.944Z,20.83
2022-09-04T01:42:51.613Z,20.80
2022-09-04T01:45:38.067Z,20.77
2022-09-04T01:48:07.973Z,20.75
2022-09-04T01:50:35.217Z,20.71
2022-09-04T01:53:07.092Z,20.70
2022-09-04T01:55:58.460Z,20.67
2022-09-04T01:58:50.964Z,20.63
2022-09-04T02:01:35.580Z,20.59
2022-09-04T02:04:25.729Z,20.55
2022-09-04T02:07:19.837Z,20.53
2022-09-04T02:10:11.763Z,20.50
2022-09-04T02:12:58.330Z,20.49
2022-09-04T02:15:30.879Z,20.46
2022-09-04T02:18:12.365Z,20.43
2022-09-04T02:20:53.734Z,20.40
2022-09-04T02:23:29.990Z,20.37
2022-09-04T02:26:15.088Z,20.34
2022-09-04T02:28:56.028Z,20.28
2022-09-04T02:31:43.676Z,20.25
2022-09-04T02:34:20.689Z,20.23
2022-09-04T02:36:54.417Z,20.22
2022-09-04T02:40:00.885Z,20.20
2022-09-04T02:42:47.603Z,20.17
2022-09-04T02:45:19.839Z,20.17
2022-09-04T02:48:03.963Z,20.16
2022-09-04T02:51:08.450Z,20.14
2022-09-04T02:53:40.991Z,20.10
2022-09-04T02:56:19.895Z,20.10
2022-09-04T02:59:05.518Z,20.08
2022-09-04T03:01:38.347Z,20.05
2022-09-04T03:04:16.321Z,20.02
2022-09-04T03:06:52.319Z,20.00
2022-09-04T03:09:29.779Z,19.97
2022-09-04T03:12:29.472Z,19.95
2022-09-04T03:15:03.908Z,19.91
2022-09-04T03:17:46.437Z,19.90
2022-09-04T03:20:25.261Z,19.88
2022-09-04T03:23:04.139Z,19.86
2022-09-04T03:25:48.373Z,19.87
2022-09-04T03:28:45.483Z,19.84
2022-09-04T03:31:29.052Z,19.83
2022-09-04T03:34:22.515Z,19.80
2022-09-04T03:37:10.853Z,19.79
2022-09-04T03:39:56.661Z,19.77
2022-09-04T03:42:59.347Z,19.74
2022-09-04T03:45:59.296Z,19.73
2022-09-04T03:48:39.960Z,19.71
2022-09-04T03:51:18.032Z,19.69
2022-09-04T03:53:50.763Z,19.65
2022-09-04T03:56:37.377Z,19.63
2022-09-04T03:59:08.839Z,19.60
2022-09-04T04:01:42.222Z,19.59
2022-09-04T04:04:46.501Z,19.57
2022-09-04T04:07:55.461Z,19.55
2022-09-04T04:10:33.544Z,19.54
2022-09-04T04:13:08.667Z,19.52
2022-09-04T04:15:46.851Z,19.51
2022-09-04T04:18:26.496Z,19.50
2022-09-04T04:21:31.680Z,19.46
2022-09-04T04:24:39.021Z,19.44
2022-09-04T04:27:33.461Z,19.38
2022-09-04T04:30:09.178Z,19.34
2022-09-04T04:33:13.623Z,19.32
2022-09-04T04:36:00.373Z,19.27
2022-09-04T04:38:44.642Z,19.26
2022-09-04T04:41:24.788Z,19.23
2022-09-04T04:44:12.535Z,19.22
2022-09-04T04:46:57.226Z,19.21
2022-09-04T04:49:34.013Z,19.21
2022-09-04T04:52:19.077Z,19.21
2022-09-04T04:54:52.852Z,19.21
2022-09-04T04:57:43.389Z,19.20
2022-09-04T05:00:22.782Z,19.20
2022-09-04T05:03:16.119Z,19.19
2022-09-04T05:06:09.445Z,19.19
2022-09-04T05:08:43.939Z,19.19
2022-09-04T05:11:18.858Z,19.18
2022-09-04T05:13:51.590Z,19.20
2022-09-04T05:16:50.035Z,19.22
2022-09-04T05:19:29.675Z,19.24
2022-09-04T05:22:03.689Z,19.25
2022-09-04T05:24:56.143Z,19.28
2022-09-04T05:27:22.779Z,19.29
2022-09-04T05:30:00.699Z,19.35
2022-09-04T05:32:49.620Z,19.39
2022-09-04T05:35:45.240Z,19.45
2022-09-04T05:38:31.853Z,19.51
2022-09-04T05:41:16.322Z,19.59
2022-09-04T05:44:09.147Z,19.65
2022-09-04T05:46:57.669Z,19.78
2022-09-04T05:49:43.205Z,20.04
2022-09-04T05:52:29.533Z,20.33
2022-09-04T05:55:02.575Z,20.62
2022-09-04T05:57:47.220Z,20.89
2022-09-04T06:00:18.676Z,21.26
2022-09-04T06:03:22.995Z,21.65
2022-09-04T06:06:17.265Z,22.00
2022-09-04T06:08:56.121Z,22.24
2022-09-04T06:11:45.824Z,22.45
2022-09-04T06:14:34.675Z,22.62
2022-09-04T06:17:10.132Z,22.65
2022-09-04T06:20:08.161Z,22.77
2022-09-04T06:23:11.415Z,22.99
2022-09-04T06:26:08.692Z,23.27
2022-09-04T06:28:46.195Z,23.62
2022-09-04T06:31:19.085Z,23.88
2022-09-04T06:34:11.344Z,24.22
2022-09-04T06:37:03.012Z,24.50
2022-09-04T06:39:43.347Z,24.65
2022-09-04T06:42:30.745Z,24.50
2022-09-04T06:45:03.896Z,24.32
2022-09-04T06:47:50.155Z,24.18
2022-09-04T06:50:21.725Z,24.07
2022-09-04T06:53:18.689Z,24.09
2022-09-04T06:55:53.673Z,24.13
2022-09-04T06:58:43.081Z,24.24
2022-09-04T07:01:40.173Z,24.42
2022-09-04T07:04:20.103Z,24.47
2022-09-04T07:07:16.893Z,24.44
2022-09-04T07:09:49.400Z,24.49
2022-09-04T07:12:27.996Z,24.58
2022-09-04T07:15:27.208Z,24.59
2022-09-04T07:18:23.594Z,24.68
2022-09-04T07:21:15.376Z,24.87
2022-09-04T07:23:57.759Z,25.13
2022-09-04T07:26:37.781Z,25.46
2022-09-04T07:29:31.627Z,25.73
2022-09-04T07:31:58.297Z,26.01
2022-09-04T07:34:37.904Z,26.34
2022-09-04T07:37:27.674Z,26.72
2022-09-04T07:40:09.676Z,27.07
2022-09-04T07:42:50.932Z,27.35
2022-09-04T07:45:35.051Z,27.52
2022-09-04T07:48:20.237Z,27.55
2022-09-04T07:51:07.183Z,27.67
2022-09-04T07:54:05.712Z,27.93
2022-09-04T07:57:05.916Z,28.19
2022-09-04T07:59:57.035Z,28.37
2022-09-04T08:02:32.879Z,28.46
2022-09-04T08:05:12.104Z,28.49
2022-09-04T08:07:38.764Z,28.46
2022-09-04T08:10:26.729Z,28.34
2022-09-04T08:13:14.018Z,28.26
2022-09-04T08:15:53.063Z,28.11
2022-09-04T08:18:38.599Z,27.91
2022-09-04T08:21:14.397Z,27.62
2022-09-04T08:23:44.009Z,27.43
2022-09-04T08:26:20.604Z,27.32
2022-09-04T08:29:00.491Z,27.23
2022-09-04T08:31:32.733Z,27.11
2022-09-04T08:34:31.252Z,27.03
2022-09-04T08:37:05.215Z,26.97
2022-09-04T08:39:44.813Z,26.92
2022-09-04T08:42:42.072Z,26.92
2022-09-04T08:45:29.372Z,26.88
2022-09-04T08:48:09.187Z,26.87
2022-09-04T08:51:13.554Z,26.81
2022-09-04T08:53:46.253Z,26.77
2022-09-04T08:56:28.371Z,26.77
2022-09-04T08:59:20.010Z,26.73
2022-09-04T09:02:27.402Z,26.71
2022-09-04T09:05:14.037Z,26.67
2022-09-04T09:08:06.292Z,26.65
2022-09-04T09:10:53.104Z,26.62
2022-09-04T09:14:01.739Z,26.57
2022-09-04T09:16:43.883Z,26.56
2022-09-04T09:19:37.475Z,26.55
2022-09-04T09:22:12.777Z,26.55
2022-09-04T09:25:11.168Z,26.53
2022-09-04T09:28:02.766Z,26.53
2022-09-04T09:31:00.672Z,26.51
2022-09-04T09:33:55.551Z,26.50
2022-09-04T09:36:53.366Z,26.50
2022-09-04T09:39:35.107Z,26.52
2022-09-04T09:42:13.807Z,26.50
2022-09-04T09:44:51.074Z,26.50
2022-09-04T09:47:38.624Z,26.52
2022-09-04T09:50:10.661Z,26.53
2022-09-04T09:53:11.912Z,26.59
2022-09-04T09:55:53.846Z,26.63
2022-09-04T09:58:26.585Z,26.70
2022-09-04T10:01:08.344Z,26.74
2022-09-04T10:03:38.222Z,26.76
2022-09-04T10:06:27.060Z,26.78
2022-09-04T10:09:14.340Z,26.80
2022-09-04T10:12:08.398Z,26.82
2022-09-04T10:14:55.187Z,26.83
2022-09-04T10:17:24.873Z,26.85
2022-09-04T10:20:12.801Z,26.90
2022-09-04T10:23:05.697Z,26.95
2022-09-04T10:26:10.405Z,26.99
2022-09-04T10:29:09.908Z,27.05
2022-09-04T10:32:08.309Z,27.09
2022-09-04T10:34:54.302Z,27.13
2022-09-04T10:37:59.617Z,27.19
2022-09-04T10:40:42.874Z,27.22
2022-09-04T10:43:37.161Z,27.26
2022-09-04T10:46:26.138Z,27.28
2022-09-04T10:48:55.789Z,27.30
2022-09-04T10:51:54.872Z,27.32
2022-09-04T10:54:33.661Z,27.38
2022-09-04T10:57:37.923Z,27.46
2022-09-04T11:00:11.641Z,27.50
2022-09-04T11:02:53.648Z,27.55
2022-09-04T11:05:39.340Z,27.59
2022-09-04T11:08:36.082Z,27.64
2022-09-04T11:11:15.686Z,27.68
2022-09-04T11:14:10.859Z,27.71
2022-09-04T11:17:16.262Z,27.73
2022-09-04T11:20:17.575Z,27.75
2022-09-04T11:23:22.768Z,27.81
2022-09-04T11:26:27.343Z,27.85
2022-09-04T11:29:14.595Z,27.91
2022-09-04T11:31:58.823Z,27.97
2022-09-04T11:34:54.019Z,28.02
2022-09-04T11:37:31.064Z,28.05
2022-09-04T11:40:22.173Z,28.12
2022-09-04T11:43:01.721Z,28.15
2022-09-04T11:46:00.743Z,28.19
2022-09-04T11:48:30.554Z,28.24
2022-09-04T11:51:42.802Z,28.31
2022-09-04T11:54:41.129Z,28.37
2022-09-04T11:57:20.387Z,28.42
2022-09-04T12:00:11.353Z,28.45
2022-09-04T12:02:56.755Z,28.49
2022-09-04T12:05:39.917Z,28.55
2022-09-04T12:08:28.206Z,28.59
2022-09-04T12:11:22.326Z,28.62
2022-09-04T12:14:12.114Z,28.65
2022-09-04T12:16:42.158Z,28.70
2022-09-04T12:19:46.614Z,28.73
2022-09-04T12:22:25.056Z,28.78
2022-09-04T12:25:10.579Z,28.82
2022-09-04T12:28:08.819Z,28.83
2022-09-04T12:30:58.408Z,28.88
2022-09-04T12:33:46.265Z,28.93
2022-09-04T12:36:30.536Z,28.98
2022-09-04T12:39:21.212Z,29.02
2022-09-04T12:41:58.230Z,29.10
2022-09-04T12:44:45.586Z,29.14
2022-09-04T12:47:58.652Z,29.17
2022-09-04T12:50:33.516Z,29.18
2022-09-04T12:53:31.029Z,29.22
2022-09-04T12:56:15.757Z,29.25
2022-09-04T12:59:23.355Z,29.29
2022-09-04T13:02:02.108Z,29.33
2022-09-04T13:04:35.610Z,29.39
2022-09-04T13:07:16.384Z,29.43
2022-09-04T13:10:22.055Z,29.51
2022-09-04T13:13:05.191Z,29.58
2022-09-04T13:15:58.204Z,29.66
2022-09-04T13:19:00.136Z,29.75
2022-09-04T13:21:51.810Z,29.83
2022-09-04T13:24:44.603Z,29.90
2022-09-04T13:27:34.130Z,29.99
2022-09-04T13:30:09.605Z,30.06
2022-09-04T13:33:01.199Z,30.10
2022-09-04T13:35:50.090Z,30.15
2022-09-04T13:38:39.857Z,30.17
2022-09-04T13:41:16.833Z,30.20
2022-09-04T13:44:11.555Z,30.24
2022-09-04T13:46:43.861Z,30.32
2022-09-04T13:49:14.836Z,30.38
2022-09-04T13:51:45.550Z,30.42
2022-09-04T13:54:17.764Z,30.43
2022-09-04T13:57:03.383Z,30.45
2022-09-04T13:59:30.121Z,30.47
2022-09-04T14:02:02.357Z,30.49
2022-09-04T14:04:40.275Z,30.54
2022-09-04T14:07:32.544Z,30.57
2022-09-04T14:10:04.277Z,30.56
2022-09-04T14:12:53.681Z,30.59
2022-09-04T14:15:44.598Z,30.61
2022-09-04T14:18:45.305Z,30.61
2022-09-04T14:21:25.304Z,30.60
2022-09-04T14:24:03.507Z,30.62
2022-09-04T14:26:59.695Z,30.63
2022-09-04T14:30:01.804Z,30.62
2022-09-04T14:32:32.138Z,30.59
2022-09-04T14:35:02.220Z,30.56
2022-09-04T14:37:49.014Z,30.52
2022-09-04T14:40:29.097Z,30.50
2022-09-04T14:43:33.957Z,30.48
2022-09-04T14:46:07.047Z,30.47
2022-09-04T14:48:40.306Z,30.45
2022-09-04T14:51:17.891Z,30.47
2022-09-04T14:53:50.271Z,30.50
2022-09-04T14:56:38.216Z,30.53
2022-09-04T14:59:22.017Z,30.57
2022-09-04T15:02:11.182Z,30.57
2022-09-04T15:04:46.952Z,30.54
2022-09-04T15:07:30.647Z,30.55
2022-09-04T15:10:09.256Z,30.56
2022-09-04T15:13:14.478Z,30.59
2022-09-04T15:15:46.460Z,30.61
2022-09-04T15:18:23.389Z,30.62
2022-09-04T15:21:21.289Z,30.64
2022-09-04T15:23:50.313Z,30.64
2022-09-04T15:26:37.859Z,30.61
2022-09-04T15:29:20.525Z,30.58
2022-09-04T15:31:47.540Z,30.55
2022-09-04T15:34:24.997Z,30.53
2022-09-04T15:36:51.731Z,30.52
2022-09-04T15:39:29.174Z,30.51
2022-09-04T15:41:56.024Z,30.48
2022-09-04T15:44:33.700Z,30.44
2022-09-04T15:47:23.552Z,30.40
2022-09-04T15:50:00.445Z,30.36
2022-09-04T15:52:51.024Z,30.34
2022-09-04T15:55:24.677Z,30.32
2022-09-04T15:58:15.818Z,30.32
2022-09-04T16:01:08.535Z,30.29
2022-09-04T16:03:54.196Z,30.26
2022-09-04T16:06:29.964Z,30.22
2022-09-04T16:09:10.206Z,30.21
2022-09-04T16:11:41.523Z,30.19
2022-09-04T16:14:15.882Z,30.17
2022-09-04T16:16:46.474Z,30.16
2022-09-04T16:19:20.828Z,30.13
2022-09-04T16:22:10.781Z,30.12
2022-09-04T16:24:47.971Z,30.07
2022-09-04T16:27:21.253Z,30.03
2022-09-04T16:29:52.897Z,30.00
2022-09-04T16:32:28.728Z,29.96
2022-09-04T16:34:56.041Z,29.92
2022-09-04T16:37:30.435Z,29.88
2022-09-04T16:40:24.975Z,29.85
2022-09-04T16:43:09.557Z,29.80
2022-09-04T16:45:40.213Z,29.76
2022-09-04T16:48:33.905Z,29.73
2022-09-04T16:51:23.500Z,29.70
2022-09-04T16:54:05.245Z,29.65
2022-09-04T16:56:40.479Z,29.64
2022-09-04T16:59:24.399Z,29.58
2022-09-04T17:01:59.361Z,29.54
2022-09-04T17:04:52.561Z,29.50
2022-09-04T17:07:24.303Z,29.47
2022-09-04T17:10:01.682Z,29.43
2022-09-04T17:12:38.097Z,29.39
2022-09-04T17:15:22.580Z,29.34
2022-09-04T17:17:51.575Z,29.30
2022-09-04T17:20:45.355Z,29.25
2022-09-04T17:29:01.922Z,29.21
2022-09-04T17:29:15.036Z,29.15
2022-09-04T17:29:46.955Z,29.10
2022-09-04T17:33:35.546Z,29.03
2022-09-04T17:40:43.703Z,28.99
2022-09-04T17:40:54.114Z,28.93
2022-09-04T17:41:47.366Z,28.88
2022-09-04T17:44:50.424Z,28.84
2022-09-04T17:47:28.607Z,28.78
2022-09-04T17:49:55.869Z,28.75
2022-09-04T17:52:28.219Z,28.70
2022-09-04T17:55:07.535Z,28.67
2022-09-04T17:58:02.235Z,28.63
2022-09-04T18:00:33.108Z,28.58
2022-09-04T18:03:29.802Z,28.54
2022-09-04T18:06:03.409Z,28.49
2022-09-04T18:08:39.483Z,28.45
2022-09-04T18:11:17.892Z,28.40
2022-09-04T18:13:52.070Z,28.36
2022-09-04T18:16:38.860Z,28.31
2022-09-04T18:19:20.479Z,28.27
2022-09-04T18:22:08.441Z,28.22
2022-09-04T18:24:48.597Z,28.17
2022-09-04T18:27:21.524Z,28.12
2022-09-04T18:32:16.875Z,28.07
2022-09-04T18:37:22.450Z,28.02
2022-09-04T18:37:41.570Z,27.98
2022-09-04T18:39:45.022Z,27.94
2022-09-04T18:47:08.436Z,27.88
2022-09-04T18:50:32.961Z,27.85
2022-09-04T18:50:34.632Z,27.79
2022-09-04T18:51:21.523Z,27.75
2022-09-04T18:53:52.356Z,27.69
2022-09-04T18:56:42.227Z,27.66
2022-09-04T18:59:32.640Z,27.63
2022-09-04T19:02:14.046Z,27.60
2022-09-04T19:04:58.813Z,27.55
2022-09-04T19:07:46.060Z,27.52
2022-09-04T19:10:19.917Z,27.48
2022-09-04T19:12:49.561Z,27.46
2022-09-04T19:15:36.163Z,27.42
2022-09-04T19:18:18.548Z,27.39
2022-09-04T19:20:49.148Z,27.36
2022-09-04T19:23:25.868Z,27.35
2022-09-04T19:25:55.159Z,27.32
2022-09-04T19:28:26.285Z,27.29
2022-09-04T19:31:01.099Z,27.27
2022-09-04T19:33:40.883Z,27.23
2022-09-04T19:36:18.983Z,27.19
2022-09-04T19:45:55.350Z,27.17
2022-09-04T19:46:03.655Z,27.12
2022-09-04T19:46:13.996Z,27.08
2022-09-04T19:47:40.873Z,27.04
2022-09-04T19:53:20.350Z,26.98
2022-09-04T19:53:41.105Z,26.95
2022-09-04T19:56:11.829Z,26.92
2022-09-04T19:58:46.448Z,26.88
2022-09-04T20:01:20.414Z,26.85
2022-09-04T20:03:54.976Z,26.82
2022-09-04T20:06:30.158Z,26.79
2022-09-04T20:09:05.532Z,26.76
2022-09-04T20:11:54.139Z,26.72
2022-09-04T20:14:35.981Z,26.70
2022-09-04T20:17:10.551Z,26.67
2022-09-04T20:19:44.859Z,26.66
2022-09-04T20:22:33.501Z,26.64
2022-09-04T20:25:17.143Z,26.61
2022-09-04T20:27:47.224Z,26.58
2022-09-04T20:30:19.512Z,26.56
2022-09-04T20:32:58.713Z,26.52
2022-09-04T20:35:37.801Z,26.50
2022-09-04T20:38:23.951Z,26.48
2022-09-04T20:40:56.487Z,26.44
2022-09-04T20:43:31.706Z,26.43
2022-09-04T20:51:29.334Z,26.39
2022-09-04T20:52:52.414Z,26.34
2022-09-04T20:52:54.889Z,26.36
2022-09-04T20:54:55.988Z,26.32
2022-09-04T21:03:07.522Z,26.29
2022-09-04T21:03:23.726Z,26.27
2022-09-04T21:03:59.066Z,26.25
2022-09-04T21:06:38.870Z,26.20
2022-09-04T21:09:54.732Z,26.16
2022-09-04T21:12:39.388Z,26.11
2022-09-04T21:15:10.824Z,26.09
2022-09-04T21:17:50.828Z,26.06
2022-09-04T21:20:46.643Z,26.05
2022-09-04T21:23:35.244Z,26.02
2022-09-04T21:26:33.777Z,25.98
2022-09-04T21:29:22.047Z,25.96
2022-09-04T21:32:18.213Z,25.94
2022-09-04T21:34:55.619Z,25.91
2022-09-04T21:37:40.981Z,25.88
2022-09-04T21:40:42.250Z,25.84
2022-09-04T21:43:19.155Z,25.81
2022-09-04T21:46:13.201Z,25.79
2022-09-04T21:49:07.812Z,25.77
2022-09-04T21:51:35.054Z,25.74
2022-09-04T21:54:37.552Z,25.71
2022-09-04T22:02:27.596Z,25.70
2022-09-04T22:02:38.829Z,25.67
2022-09-04T22:03:22.333Z,25.62
2022-09-04T22:06:08.947Z,25.58
2022-09-04T22:13:26.708Z,25.54
2022-09-04T22:13:38.392Z,25.53
2022-09-04T22:14:42.966Z,25.48
2022-09-04T22:17:27.247Z,25.46
2022-09-04T22:20:12.896Z,25.45
2022-09-04T22:22:57.746Z,25.43
2022-09-04T22:25:44.949Z,25.39
2022-09-04T22:28:36.663Z,25.36
2022-09-04T22:31:24.808Z,25.32
2022-09-04T22:34:18.464Z,25.28
2022-09-04T22:37:05.752Z,25.26
2022-09-04T22:39:43.509Z,25.23
2022-09-04T22:42:43.808Z,25.21
2022-09-04T22:45:24.700Z,25.16
2022-09-04T22:48:13.244Z,25.14
2022-09-04T22:50:52.560Z,25.09
2022-09-04T22:53:45.356Z,25.06
2022-09-04T22:56:24.749Z,25.03
2022-09-04T22:59:27.215Z,25.00
2022-09-04T23:02:13.511Z,24.98
2022-09-04T23:04:57.776Z,24.94
2022-09-04T23:12:57.264Z,24.91
2022-09-04T23:13:47.314Z,24.89
2022-09-04T23:14:08.800Z,24.82
2022-09-04T23:17:08.764Z,24.78
2022-09-04T23:25:47.621Z,24.73
2022-09-04T23:26:43.941Z,24.71
2022-09-04T23:26:49.023Z,24.67
2022-09-04T23:29:21.503Z,24.64
2022-09-04T23:32:30.398Z,24.60
2022-09-04T23:35:32.082Z,24.57
2022-09-04T23:38:19.980Z,24.53
2022-09-04T23:40:50.876Z,24.49
2022-09-04T23:43:58.047Z,24.46
2022-09-04T23:46:40.353Z,24.43
2022-09-04T23:49:40.872Z,24.41
2022-09-04T23:52:20.589Z,24.37
2022-09-04T23:55:10.464Z,24.34
2022-09-04T23:57:42.519Z,24.33
